createdAt,value
2022-12-22T02:00:34.812Z,24.88
2022-12-22T02:03:21.849Z,25.05
2022-12-22T02:09:03.309Z,25.77
2022-12-22T02:12:42.207Z,22.52
2022-12-22T02:18:31.065Z,20.52
2022-12-22T02:21:21.084Z,19.00
2022-12-22T02:24:13.364Z,19.98
2022-12-22T02:27:08.677Z,18.42
2022-12-22T02:30:01.000Z,22.45
2022-12-22T02:32:47.990Z,20.30
2022-12-22T02:35:35.016Z,23.63
2022-12-22T02:38:45.271Z,20.50
2022-12-22T02:41:37.591Z,22.08
2022-12-22T02:44:36.669Z,19.98
2022-12-22T02:47:31.635Z,19.88
2022-12-22T02:50:23.253Z,20.08
2022-12-22T02:53:09.383Z,21.63
2022-12-22T02:55:56.399Z,20.13
2022-12-22T02:58:43.266Z,19.85
2022-12-22T03:01:29.459Z,23.05
2022-12-22T03:04:15.976Z,24.48
2022-12-22T03:07:02.561Z,18.88
2022-12-22T03:09:49.323Z,20.00
2022-12-22T03:12:35.361Z,22.40
2022-12-22T03:15:21.535Z,19.67
2022-12-22T03:18:08.236Z,25.83
2022-12-22T03:20:54.475Z,18.33
2022-12-22T03:23:40.687Z,18.42
2022-12-22T03:26:08.704Z,20.83
2022-12-22T03:28:36.594Z,20.88
2022-12-22T03:31:05.588Z,18.02
2022-12-22T03:33:33.717Z,20.83
2022-12-22T03:36:01.885Z,17.05
2022-12-22T03:38:29.948Z,19.58
2022-12-22T03:40:57.784Z,15.52
2022-12-22T03:44:05.513Z,16.25
2022-12-22T03:46:33.769Z,16.98
2022-12-22T03:49:12.117Z,16.75
2022-12-22T03:51:44.834Z,21.63
2022-12-22T03:54:14.479Z,19.08
2022-12-22T03:56:43.075Z,16.27
2022-12-22T03:59:11.021Z,16.73
2022-12-22T04:01:43.631Z,18.98
2022-12-22T04:04:12.835Z,13.80
2022-12-22T04:06:41.185Z,17.40
2022-12-22T04:09:09.498Z,14.93
2022-12-22T04:11:55.885Z,12.80
2022-12-22T04:14:29.680Z,18.10
2022-12-22T04:17:04.628Z,15.85
2022-12-22T04:19:32.604Z,13.38
2022-12-22T04:22:00.444Z,18.63
2022-12-22T04:24:28.355Z,17.15
2022-12-22T04:26:56.207Z,23.50
2022-12-22T04:29:24.958Z,19.55
2022-12-22T04:31:52.706Z,17.15
2022-12-22T04:34:20.647Z,18.92
2022-12-22T04:36:49.171Z,15.88
2022-12-22T04:39:16.990Z,18.83
2022-12-22T04:41:45.473Z,14.70
2022-12-22T04:44:13.610Z,17.15
2022-12-22T04:46:41.497Z,17.50
2022-12-22T04:49:09.582Z,17.88
2022-12-22T04:51:37.443Z,13.60
2022-12-22T04:54:07.731Z,18.60
2022-12-22T04:56:36.038Z,14.27
2022-12-22T04:59:04.612Z,13.48
2022-12-22T05:01:33.170Z,11.75
2022-12-22T05:04:03.161Z,14.90
2022-12-22T05:06:31.142Z,12.77
2022-12-22T05:08:59.911Z,12.43
2022-12-22T05:11:27.871Z,13.02
2022-12-22T05:13:55.677Z,14.90
2022-12-22T05:16:23.807Z,16.38
2022-12-22T05:18:51.851Z,12.25
2022-12-22T05:21:21.904Z,14.68
2022-12-22T05:23:50.360Z,15.95
2022-12-22T05:26:18.471Z,17.88
2022-12-22T05:28:50.975Z,18.98
2022-12-22T05:31:28.111Z,21.40
2022-12-22T05:33:56.447Z,22.73
2022-12-22T05:36:24.698Z,22.02
2022-12-22T05:38:52.620Z,26.83
2022-12-22T05:41:20.507Z,28.88
2022-12-22T05:43:48.266Z,34.97
2022-12-22T05:46:16.573Z,34.90
2022-12-22T05:48:44.533Z,35.30
2022-12-22T05:51:33.519Z,24.85
2022-12-22T05:54:02.985Z,19.52
2022-12-22T05:56:31.250Z,15.90
2022-12-22T05:58:58.988Z,17.35
2022-12-22T06:01:26.780Z,17.90
2022-12-22T06:03:59.924Z,20.92
2022-12-22T06:06:28.938Z,17.35
2022-12-22T06:08:57.047Z,16.38
2022-12-22T06:11:25.235Z,15.98
2022-12-22T06:13:53.251Z,16.33
2022-12-22T06:16:21.366Z,16.38
2022-12-22T06:18:49.531Z,12.75
2022-12-22T06:21:17.465Z,13.27
2022-12-22T06:23:46.919Z,7.50
2022-12-22T06:26:15.249Z,9.95
2022-12-22T06:28:43.173Z,9.63
2022-12-22T06:31:12.180Z,12.02
2022-12-22T06:33:40.671Z,16.67
2022-12-22T06:36:09.112Z,14.90
2022-12-22T06:38:37.364Z,11.68
2022-12-22T06:41:05.394Z,14.02
2022-12-22T06:43:33.741Z,15.35
2022-12-22T06:46:01.762Z,11.73
2022-12-22T06:48:30.167Z,12.00
2022-12-22T06:50:59.217Z,13.73
2022-12-22T06:53:27.277Z,16.30
2022-12-22T06:55:56.181Z,13.60
2022-12-22T06:58:24.129Z,10.50
2022-12-22T07:00:56.508Z,12.73
2022-12-22T07:03:26.208Z,12.45
2022-12-22T07:05:55.120Z,11.88
2022-12-22T07:08:24.042Z,14.43
2022-12-22T07:10:59.083Z,17.38
2022-12-22T07:13:34.253Z,15.30
2022-12-22T11:01:36.073Z,25.83
2022-12-22T11:04:24.001Z,23.05
2022-12-22T11:06:53.325Z,19.00
2022-12-22T11:09:33.547Z,20.13
2022-12-22T11:12:20.268Z,21.13
2022-12-22T11:15:28.506Z,18.70
2022-12-22T11:18:09.420Z,14.98
2022-12-22T11:20:51.147Z,20.63
2022-12-22T11:23:35.127Z,15.77
2022-12-22T11:26:27.627Z,17.27
2022-12-22T11:29:10.722Z,16.33
2022-12-22T11:31:42.948Z,18.17
2022-12-22T11:34:31.200Z,20.10
2022-12-22T11:37:12.060Z,15.05
2022-12-22T11:39:46.219Z,15.38
2022-12-22T11:42:58.196Z,16.42
2022-12-22T11:45:44.934Z,17.63
2022-12-22T11:51:27.369Z,17.27
2022-12-22T11:54:10.713Z,15.82
2022-12-22T11:57:13.881Z,27.02
2022-12-22T12:00:07.929Z,20.73
2022-12-22T12:03:05.492Z,20.52
2022-12-22T12:09:02.560Z,23.05
2022-12-22T12:11:42.692Z,23.65
2022-12-22T12:14:17.056Z,21.10
2022-12-22T12:16:51.939Z,22.95
2022-12-22T12:19:37.892Z,20.80
2022-12-22T12:22:05.954Z,22.07
2022-12-22T12:25:18.740Z,18.63
2022-12-22T12:28:15.172Z,22.03
2022-12-22T12:30:59.878Z,20.30
2022-12-22T12:33:47.312Z,19.42
2022-12-22T12:36:36.506Z,18.38
2022-12-22T12:39:17.436Z,20.90
2022-12-22T12:42:44.824Z,19.73
2022-12-22T12:45:44.604Z,18.23
2022-12-22T12:48:21.611Z,20.20
2022-12-22T12:50:55.848Z,20.63
2022-12-22T12:53:29.208Z,26.75
2022-12-22T12:56:01.633Z,26.70
2022-12-22T12:58:44.582Z,35.30
2022-12-22T13:01:33.499Z,27.75
2022-12-22T13:04:05.341Z,28.38
2022-12-22T13:06:49.288Z,24.20
2022-12-22T13:12:49.067Z,20.50
2022-12-22T13:15:42.246Z,22.67
2022-12-22T13:18:44.380Z,24.48
2022-12-22T13:24:26.437Z,19.75
2022-12-22T13:26:55.937Z,19.88
2022-12-22T13:29:29.473Z,19.90
2022-12-22T13:32:01.545Z,18.30
2022-12-22T13:35:20.270Z,18.40
2022-12-22T13:37:40.465Z,25.00
2022-12-22T13:40:17.787Z,21.27
2022-12-22T13:43:04.240Z,16.95
2022-12-22T13:45:52.543Z,15.30
2022-12-22T13:48:27.539Z,15.73
2022-12-22T13:51:00.191Z,14.60
2022-12-22T13:56:38.997Z,14.65
2022-12-22T13:59:18.687Z,15.77
2022-12-22T14:01:51.037Z,25.23
2022-12-22T14:04:19.166Z,22.58
2022-12-22T14:06:46.998Z,18.48
2022-12-22T14:09:21.429Z,17.88
2022-12-22T14:12:03.106Z,20.23
2022-12-22T14:14:39.409Z,23.13
2022-12-22T14:17:35.889Z,20.88
2022-12-22T14:20:37.122Z,23.13
2022-12-22T14:23:09.590Z,19.42
2022-12-22T14:25:41.844Z,16.45
2022-12-22T14:28:20.507Z,20.15
2022-12-22T14:30:50.592Z,21.48
2022-12-22T14:33:28.718Z,25.75
2022-12-22T14:36:25.094Z,23.98
2022-12-22T14:39:00.063Z,19.73
2022-12-22T14:41:49.355Z,26.75
2022-12-22T14:44:25.137Z,26.48
2022-12-22T14:47:20.335Z,22.92
2022-12-22T14:49:54.567Z,24.70
2022-12-22T14:52:41.220Z,20.25
2022-12-22T14:55:35.138Z,25.27
2022-12-22T14:58:03.647Z,21.02
2022-12-22T15:00:32.948Z,17.73
2022-12-22T15:03:03.640Z,16.35
2022-12-22T15:05:39.222Z,26.42
2022-12-22T15:08:41.502Z,19.52
2022-12-22T15:11:32.909Z,16.80
2022-12-22T15:14:00.814Z,23.42
2022-12-22T15:16:31.117Z,18.77
2022-12-22T15:18:59.403Z,18.13
2022-12-22T15:21:27.229Z,18.27
2022-12-22T15:23:55.153Z,16.20
2022-12-22T15:26:26.510Z,20.38
2022-12-22T15:28:55.209Z,15.00
2022-12-22T15:31:23.146Z,15.90
2022-12-22T15:33:51.705Z,21.98
2022-12-22T15:36:22.907Z,18.80
2022-12-22T15:38:51.313Z,18.35
2022-12-22T15:41:20.949Z,16.90
2022-12-22T15:43:58.169Z,17.05
2022-12-22T15:46:27.840Z,19.02
2022-12-22T15:48:56.572Z,18.02
2022-12-22T15:51:29.227Z,26.95
2022-12-22T15:54:00.350Z,21.02
2022-12-22T15:56:30.483Z,25.88
2022-12-22T15:59:01.355Z,25.50
2022-12-22T16:01:30.962Z,22.83
2022-12-22T16:04:01.141Z,24.75
2022-12-22T16:06:29.391Z,29.70
2022-12-22T20:16:52.401Z,15.57
2022-12-22T20:19:29.426Z,18.00
2022-12-22T20:21:57.287Z,24.17
2022-12-22T20:24:31.290Z,20.83
2022-12-22T20:26:59.705Z,23.55
2022-12-22T20:29:28.108Z,20.70
2022-12-22T20:31:55.965Z,22.20
2022-12-22T20:34:24.121Z,18.80
2022-12-22T20:36:51.936Z,25.17
2022-12-22T20:39:20.732Z,20.15
2022-12-22T20:41:53.425Z,20.50
2022-12-22T20:44:22.338Z,20.80
2022-12-22T20:46:50.056Z,18.10
2022-12-22T20:49:17.903Z,18.02
2022-12-22T20:51:45.715Z,16.92
2022-12-22T20:54:14.958Z,18.15
2022-12-22T20:56:44.054Z,20.02
2022-12-22T20:59:21.011Z,18.30
2022-12-22T21:01:51.540Z,19.00
2022-12-22T21:04:22.479Z,22.88
2022-12-22T21:06:52.122Z,18.38
2022-12-22T21:09:20.437Z,18.50
2022-12-22T21:11:53.814Z,16.15
2022-12-22T21:14:24.754Z,20.65
2022-12-22T21:16:52.981Z,22.77
2022-12-22T21:19:21.510Z,18.75
2022-12-22T21:21:50.188Z,22.55
2022-12-22T21:24:18.852Z,19.50
2022-12-22T21:26:48.962Z,19.27
2022-12-22T21:29:25.659Z,23.13
2022-12-22T21:31:53.485Z,20.73
2022-12-22T21:34:22.323Z,21.85
2022-12-22T21:36:51.717Z,20.80
2022-12-22T21:39:28.315Z,17.77
2022-12-22T21:42:05.365Z,23.23
2022-12-22T21:44:37.297Z,21.17
2022-12-22T21:47:05.204Z,20.52
2022-12-22T21:49:33.934Z,22.70
2022-12-22T21:52:01.926Z,17.73
2022-12-22T21:54:29.849Z,14.48
2022-12-22T21:56:57.678Z,17.85
2022-12-22T21:59:25.960Z,19.30
2022-12-22T22:01:54.403Z,20.65
2022-12-22T22:04:25.800Z,18.92
2022-12-22T22:06:55.174Z,20.35
2022-12-22T22:09:26.252Z,18.00
2022-12-22T22:12:12.854Z,20.33
2022-12-22T22:14:40.799Z,22.55
2022-12-22T22:17:10.600Z,22.35
2022-12-22T22:19:38.413Z,19.40
2022-12-22T22:22:09.818Z,21.45
2022-12-22T22:24:37.949Z,18.38
2022-12-22T22:27:05.961Z,17.42
2022-12-22T22:29:33.758Z,18.27
2022-12-22T22:32:01.841Z,16.90
2022-12-22T22:34:29.957Z,17.88
2022-12-22T22:36:57.749Z,18.52
2022-12-22T22:39:25.686Z,17.98
2022-12-22T22:41:53.744Z,20.13
2022-12-22T22:44:21.834Z,17.00
2022-12-22T22:46:50.154Z,18.58
2022-12-22T22:49:21.326Z,18.70
2022-12-22T22:51:52.506Z,16.48
2022-12-22T22:54:20.300Z,19.35
2022-12-22T22:56:48.062Z,17.85
2022-12-22T22:59:19.093Z,20.05
2022-12-22T23:01:46.983Z,15.95
2022-12-22T23:04:14.891Z,17.48
2022-12-22T23:06:43.189Z,20.75
2022-12-22T23:09:11.319Z,18.95
2022-12-22T23:11:39.223Z,16.30
2022-12-22T23:14:07.380Z,17.88
2022-12-22T23:16:38.743Z,15.38
2022-12-22T23:19:06.923Z,21.30
2022-12-22T23:21:34.861Z,18.10
2022-12-22T23:24:02.746Z,18.10
2022-12-22T23:26:32.850Z,18.08
2022-12-22T23:29:03.585Z,16.13
2022-12-22T23:31:32.771Z,21.30
2022-12-22T23:34:00.842Z,16.58
2022-12-22T23:36:29.149Z,19.05
2022-12-22T23:38:57.131Z,17.27
2022-12-22T23:41:25.672Z,14.57
2022-12-22T23:43:55.205Z,15.73
2022-12-22T23:46:23.698Z,14.77
2022-12-22T23:48:53.243Z,17.23
2022-12-22T23:51:28.728Z,18.48
2022-12-22T23:53:57.973Z,16.50
2022-12-22T23:56:25.904Z,15.93
2022-12-22T23:58:55.113Z,16.60
